Aérodrome :
LOGIN :

S'inscrire | Disclaimer

   EN    FR    IT 

 










Légende :    VFR   VFR Marginal   IFR   IFR Intensif   IFR Très Intensif
Visi : 
Plafond : 
>= 8 km
>= 3000ft
5 à 8 km
1000 à 3000 ft
1500m à 5 km
500 à 1000 ft
800 à 1500m
200 à 500 ft
< 800m
< 200 ft
Symboles :   Orages  Brouillard  Fortes neiges  Fortes précipitations  Vent > 20 kt
SIGMETs :   Divers  Orages  Givrage  Turbulence  Onde Orograph.  Cendres Volcan.






- Altitude de l'aérodrome : 1325 ft
- Code IATA : EBU


LFMH - St-Etienne Boutheon

DERNIER METAR :
  • 140030Z AUTO 16013KT CAVOK 04/M01 Q1001

METARs EXPIRÉS :
  • 140000Z AUTO 16005KT CAVOK 02/M01 Q1002
  • 132330Z AUTO 16007KT CAVOK 02/M01 Q1003
  • 132300Z AUTO 16008KT CAVOK 02/M01 Q1004
  • 132230Z AUTO 17008KT CAVOK 00/M02 Q1004
  • 132200Z AUTO 19006KT CAVOK 01/M01 Q1005

TAF TAF LFMH
Valide du 13 à 15h jusqu'au 14 à 15h UTC


131400Z 1315/1415 34005KT 9999 BKN040
BECMG 1315/1317 14005KT CAVOK
PROB40
TEMPO 1404/1407 18015G30KT -SHRA SCT040TCU
BECMG 1409/1411 4000 RA SCT014 BKN035
ATIS : +33 4 77 36 17 51



MET'MAP, la Météo Aéronautique d'un coup d'oeil ! - Copyright ORBIFLY Décembre 2007 - Disclaimer

ORBIFLY MET'MAP TEAM :

Programmation & Développement : Alexandra Zaïnal
Conception & Développement : Baudouin d'Aumeries
Co-Programmation & Développement : Marc-Olivier Méhu
Soutien technique & logistique : Manuel Goepfert

Contact : metmap@orbifly.com




SOURCES & CREDITS :

   NOAA